sensor_id;sensor_type;location;lat;lon;timestamp;pressure;altitude;pressure_sealevel;temperature;humidity
63903;BME280;50072;50.678;13.938;2023-04-09T00:00:14;100506.69;;;0.01;98.08
63903;BME280;50072;50.678;13.938;2023-04-09T00:03:00;100503.78;;;-0.08;97.08
63903;BME280;50072;50.678;13.938;2023-04-09T00:05:27;100503.94;;;-0.04;97.00
63903;BME280;50072;50.678;13.938;2023-04-09T00:07:53;100503.19;;;0.01;97.50
63903;BME280;50072;50.678;13.938;2023-04-09T00:10:20;100510.28;;;0.03;97.25
63903;BME280;50072;50.678;13.938;2023-04-09T00:12:47;100499.94;;;0.09;97.92
63903;BME280;50072;50.678;13.938;2023-04-09T00:15:14;100503.84;;;0.22;98.30
63903;BME280;50072;50.678;13.938;2023-04-09T00:17:40;100505.69;;;0.25;97.68
63903;BME280;50072;50.678;13.938;2023-04-09T00:20:07;100501.53;;;0.33;98.53
63903;BME280;50072;50.678;13.938;2023-04-09T00:22:33;100499.91;;;0.38;98.05
63903;BME280;50072;50.678;13.938;2023-04-09T00:25:00;100492.06;;;0.40;97.22
63903;BME280;50072;50.678;13.938;2023-04-09T00:27:26;100497.28;;;0.38;95.86
63903;BME280;50072;50.678;13.938;2023-04-09T00:29:58;100498.19;;;0.39;95.64
63903;BME280;50072;50.678;13.938;2023-04-09T00:32:26;100498.56;;;0.52;96.73
63903;BME280;50072;50.678;13.938;2023-04-09T00:34:52;100490.19;;;0.66;96.75
63903;BME280;50072;50.678;13.938;2023-04-09T00:37:18;100490.47;;;0.77;97.26
63903;BME280;50072;50.678;13.938;2023-04-09T00:39:43;100484.56;;;0.85;96.87
63903;BME280;50072;50.678;13.938;2023-04-09T00:42:15;100485.84;;;1.00;97.20
63903;BME280;50072;50.678;13.938;2023-04-09T00:44:41;100489.53;;;1.07;97.37
63903;BME280;50072;50.678;13.938;2023-04-09T00:47:08;100491.34;;;1.09;97.08
63903;BME280;50072;50.678;13.938;2023-04-09T00:49:34;100487.13;;;1.14;97.55
63903;BME280;50072;50.678;13.938;2023-04-09T00:52:01;100487.22;;;1.19;97.75
63903;BME280;50072;50.678;13.938;2023-04-09T00:54:27;100472.44;;;1.24;96.76
63903;BME280;50072;50.678;13.938;2023-04-09T00:56:56;100481.91;;;1.17;96.77
63903;BME280;50072;50.678;13.938;2023-04-09T00:59:24;100477.53;;;1.18;96.93
63903;BME280;50072;50.678;13.938;2023-04-09T01:01:52;100473.13;;;1.17;96.52
63903;BME280;50072;50.678;13.938;2023-04-09T01:04:20;100467.22;;;1.27;96.42
63903;BME280;50072;50.678;13.938;2023-04-09T01:07:41;100469.19;;;1.36;96.43
63903;BME280;50072;50.678;13.938;2023-04-09T01:13:14;100476.13;;;1.32;95.40
63903;BME280;50072;50.678;13.938;2023-04-09T01:15:59;100480.19;;;1.19;96.04
63903;BME280;50072;50.678;13.938;2023-04-09T01:21:18;100481.75;;;1.11;96.37
63903;BME280;50072;50.678;13.938;2023-04-09T01:23:46;100479.91;;;1.07;96.85
63903;BME280;50072;50.678;13.938;2023-04-09T01:29:25;100481.06;;;1.18;97.64
63903;BME280;50072;50.678;13.938;2023-04-09T01:31:53;100482.13;;;1.27;96.84
63903;BME280;50072;50.678;13.938;2023-04-09T01:34:19;100476.78;;;1.24;96.11
63903;BME280;50072;50.678;13.938;2023-04-09T01:36:51;100485.47;;;1.19;96.68
63903;BME280;50072;50.678;13.938;2023-04-09T01:39:25;100478.47;;;1.20;96.38
63903;BME280;50072;50.678;13.938;2023-04-09T01:41:51;100478.50;;;1.22;96.45
63903;BME280;50072;50.678;13.938;2023-04-09T01:44:20;100480.19;;;1.19;96.11
63903;BME280;50072;50.678;13.938;2023-04-09T01:47:10;100476.81;;;1.25;96.63
63903;BME280;50072;50.678;13.938;2023-04-09T01:49:38;100468.91;;;1.25;97.33
63903;BME280;50072;50.678;13.938;2023-04-09T01:52:10;100471.75;;;1.33;97.62
63903;BME280;50072;50.678;13.938;2023-04-09T01:54:42;100475.38;;;1.38;96.78
63903;BME280;50072;50.678;13.938;2023-04-09T01:57:08;100479.03;;;1.43;96.71
63903;BME280;50072;50.678;13.938;2023-04-09T01:59:36;100482.72;;;1.48;95.83
63903;BME280;50072;50.678;13.938;2023-04-09T02:02:21;100482.72;;;1.48;96.24
63903;BME280;50072;50.678;13.938;2023-04-09T02:05:03;100476.63;;;1.52;96.27
63903;BME280;50072;50.678;13.938;2023-04-09T02:10:01;100469.66;;;1.54;97.19
63903;BME280;50072;50.678;13.938;2023-04-09T02:12:35;100482.19;;;1.63;96.49
63903;BME280;50072;50.678;13.938;2023-04-09T02:15:14;100478.75;;;1.67;95.96
63903;BME280;50072;50.678;13.938;2023-04-09T02:17:46;100479.59;;;1.66;95.74
63903;BME280;50072;50.678;13.938;2023-04-09T02:20:17;100478.28;;;1.47;96.03
63903;BME280;50072;50.678;13.938;2023-04-09T02:22:44;100477.63;;;1.58;97.14
63903;BME280;50072;50.678;13.938;2023-04-09T02:25:16;100472.50;;;1.64;96.81
63903;BME280;50072;50.678;13.938;2023-04-09T02:27:42;100477.72;;;1.61;96.20
63903;BME280;50072;50.678;13.938;2023-04-09T02:30:14;100479.56;;;1.65;95.61
63903;BME280;50072;50.678;13.938;2023-04-09T02:32:46;100490.88;;;1.59;95.87
63903;BME280;50072;50.678;13.938;2023-04-09T02:35:12;100473.44;;;1.66;96.55
63903;BME280;50072;50.678;13.938;2023-04-09T02:37:44;100476.22;;;1.72;96.23
63903;BME280;50072;50.678;13.938;2023-04-09T02:40:10;100478.16;;;1.79;96.06
63903;BME280;50072;50.678;13.938;2023-04-09T02:42:43;100472.22;;;1.89;95.97
63903;BME280;50072;50.678;13.938;2023-04-09T02:45:09;100476.81;;;1.97;96.67
63903;BME280;50072;50.678;13.938;2023-04-09T02:47:35;100476.84;;;1.98;95.60
63903;BME280;50072;50.678;13.938;2023-04-09T02:50:14;100477.81;;;2.03;96.15
63903;BME280;50072;50.678;13.938;2023-04-09T02:52:39;100482.28;;;2.06;96.61
63903;BME280;50072;50.678;13.938;2023-04-09T02:55:14;100480.66;;;2.11;96.07
63903;BME280;50072;50.678;13.938;2023-04-09T02:57:42;100479.81;;;2.14;96.24
63903;BME280;50072;50.678;13.938;2023-04-09T03:00:10;100473.34;;;2.01;95.94
63903;BME280;50072;50.678;13.938;2023-04-09T03:02:36;100481.25;;;1.99;96.07
63903;BME280;50072;50.678;13.938;2023-04-09T03:05:05;100481.44;;;2.07;96.54
63903;BME280;50072;50.678;13.938;2023-04-09T03:07:31;100484.19;;;2.12;95.50
63903;BME280;50072;50.678;13.938;2023-04-09T03:09:58;100485.94;;;2.11;94.95
63903;BME280;50072;50.678;13.938;2023-04-09T03:12:30;100491.22;;;2.11;95.20
63903;BME280;50072;50.678;13.938;2023-04-09T03:15:14;100478.88;;;2.10;95.54
63903;BME280;50072;50.678;13.938;2023-04-09T03:17:42;100484.16;;;2.10;95.21
63903;BME280;50072;50.678;13.938;2023-04-09T03:20:13;100475.28;;;2.08;95.54
63903;BME280;50072;50.678;13.938;2023-04-09T03:22:46;100473.22;;;1.95;95.96
63903;BME280;50072;50.678;13.938;2023-04-09T03:25:14;100481.94;;;1.90;96.58
63903;BME280;50072;50.678;13.938;2023-04-09T03:27:41;100479.69;;;2.07;96.77
63903;BME280;50072;50.678;13.938;2023-04-09T03:30:10;100478.47;;;1.93;96.70
63903;BME280;50072;50.678;13.938;2023-04-09T03:32:35;100468.53;;;1.81;96.91
63903;BME280;50072;50.678;13.938;2023-04-09T03:35:01;100470.25;;;1.81;97.45
63903;BME280;50072;50.678;13.938;2023-04-09T03:37:35;100474.72;;;1.83;97.87
63903;BME280;50072;50.678;13.938;2023-04-09T03:40:04;100469.69;;;1.93;97.97
63903;BME280;50072;50.678;13.938;2023-04-09T03:42:32;100462.78;;;2.01;97.75
63903;BME280;50072;50.678;13.938;2023-04-09T03:45:08;100462.91;;;2.04;97.73
63903;BME280;50072;50.678;13.938;2023-04-09T03:47:33;100457.81;;;2.13;97.57
63903;BME280;50072;50.678;13.938;2023-04-09T03:50:07;100459.31;;;2.02;97.61
63903;BME280;50072;50.678;13.938;2023-04-09T03:52:40;100467.31;;;2.06;97.73
63903;BME280;50072;50.678;13.938;2023-04-09T03:55:06;100457.75;;;2.10;97.60
63903;BME280;50072;50.678;13.938;2023-04-09T03:57:43;100468.47;;;2.19;97.27
63903;BME280;50072;50.678;13.938;2023-04-09T04:00:12;100461.44;;;2.18;96.50
63903;BME280;50072;50.678;13.938;2023-04-09T04:02:44;100459.53;;;2.11;96.81
63903;BME280;50072;50.678;13.938;2023-04-09T04:05:11;100450.47;;;2.00;97.44
63903;BME280;50072;50.678;13.938;2023-04-09T04:07:44;100460.16;;;2.01;97.95
63903;BME280;50072;50.678;13.938;2023-04-09T04:10:15;100459.53;;;2.11;97.96
63903;BME280;50072;50.678;13.938;2023-04-09T04:12:44;100452.72;;;2.22;97.80
63903;BME280;50072;50.678;13.938;2023-04-09T04:15:16;100447.50;;;2.26;97.45
63903;BME280;50072;50.678;13.938;2023-04-09T04:17:44;100455.50;;;2.29;96.83
63903;BME280;50072;50.678;13.938;2023-04-09T04:20:14;100458.09;;;2.27;96.94
63903;BME280;50072;50.678;13.938;2023-04-09T04:22:39;100470.16;;;2.14;96.83
63903;BME280;50072;50.678;13.938;2023-04-09T04:25:14;100478.03;;;2.13;96.31
63903;BME280;50072;50.678;13.938;2023-04-09T04:27:46;100483.13;;;2.05;97.06
63903;BME280;50072;50.678;13.938;2023-04-09T04:30:11;100491.00;;;2.02;97.06
63903;BME280;50072;50.678;13.938;2023-04-09T04:32:44;100500.88;;;2.11;97.77
63903;BME280;50072;50.678;13.938;2023-04-09T04:35:14;100501.91;;;2.17;97.65
63903;BME280;50072;50.678;13.938;2023-04-09T04:37:48;100500.28;;;2.22;96.87
63903;BME280;50072;50.678;13.938;2023-04-09T04:40:19;100502.91;;;2.22;97.64
63903;BME280;50072;50.678;13.938;2023-04-09T04:42:45;100498.59;;;2.28;97.74
63903;BME280;50072;50.678;13.938;2023-04-09T04:45:14;100503.06;;;2.30;97.24
63903;BME280;50072;50.678;13.938;2023-04-09T04:47:40;100510.13;;;2.30;97.38
63903;BME280;50072;50.678;13.938;2023-04-09T04:50:08;100499.66;;;2.36;97.47
63903;BME280;50072;50.678;13.938;2023-04-09T04:52:41;100501.34;;;2.32;97.52
63903;BME280;50072;50.678;13.938;2023-04-09T04:55:13;100502.50;;;2.45;98.01
63903;BME280;50072;50.678;13.938;2023-04-09T04:57:44;100500.06;;;2.54;97.31
63903;BME280;50072;50.678;13.938;2023-04-09T05:00:16;100495.69;;;2.56;97.04
63903;BME280;50072;50.678;13.938;2023-04-09T05:02:43;100490.41;;;2.56;96.68
63903;BME280;50072;50.678;13.938;2023-04-09T05:05:09;100480.53;;;2.48;96.82
63903;BME280;50072;50.678;13.938;2023-04-09T05:07:41;100491.00;;;2.43;97.40
63903;BME280;50072;50.678;13.938;2023-04-09T05:10:14;100487.69;;;2.53;97.33
63903;BME280;50072;50.678;13.938;2023-04-09T05:12:39;100493.94;;;2.55;97.21
63903;BME280;50072;50.678;13.938;2023-04-09T05:15:06;100510.63;;;2.54;96.94
63903;BME280;50072;50.678;13.938;2023-04-09T05:17:34;100511.69;;;2.63;97.50
63903;BME280;50072;50.678;13.938;2023-04-09T05:20:00;100504.56;;;2.58;97.28
63903;BME280;50072;50.678;13.938;2023-04-09T05:22:31;100504.81;;;2.71;97.04
63903;BME280;50072;50.678;13.938;2023-04-09T05:25:01;100515.63;;;2.83;97.00
63903;BME280;50072;50.678;13.938;2023-04-09T05:27:28;100509.50;;;2.86;95.77
63903;BME280;50072;50.678;13.938;2023-04-09T05:29:59;100500.75;;;2.88;95.34
63903;BME280;50072;50.678;13.938;2023-04-09T05:32:26;100511.66;;;3.05;95.76
63903;BME280;50072;50.678;13.938;2023-04-09T05:34:54;100513.75;;;3.25;95.99
63903;BME280;50072;50.678;13.938;2023-04-09T05:37:21;100516.69;;;3.40;94.31
63903;BME280;50072;50.678;13.938;2023-04-09T05:39:53;100511.34;;;3.37;93.32
63903;BME280;50072;50.678;13.938;2023-04-09T05:42:22;100506.81;;;3.32;93.52
63903;BME280;50072;50.678;13.938;2023-04-09T05:44:54;100514.94;;;3.41;93.96
63903;BME280;50072;50.678;13.938;2023-04-09T05:47:20;100509.66;;;3.41;93.81
63903;BME280;50072;50.678;13.938;2023-04-09T05:49:52;100502.53;;;3.37;93.46
63903;BME280;50072;50.678;13.938;2023-04-09T05:52:24;100505.78;;;3.23;93.98
63903;BME280;50072;50.678;13.938;2023-04-09T05:54:58;100502.28;;;3.24;95.13
63903;BME280;50072;50.678;13.938;2023-04-09T05:57:26;100503.03;;;3.16;95.81
63903;BME280;50072;50.678;13.938;2023-04-09T05:59:55;100498.84;;;3.28;95.86
63903;BME280;50072;50.678;13.938;2023-04-09T06:02:20;100506.19;;;3.45;95.80
63903;BME280;50072;50.678;13.938;2023-04-09T06:04:47;100502.56;;;3.40;95.99
63903;BME280;50072;50.678;13.938;2023-04-09T06:07:12;100508.91;;;3.50;96.40
63903;BME280;50072;50.678;13.938;2023-04-09T06:09:38;100516.16;;;3.60;95.44
63903;BME280;50072;50.678;13.938;2023-04-09T06:12:05;100501.25;;;3.67;94.94
63903;BME280;50072;50.678;13.938;2023-04-09T06:14:31;100496.00;;;3.70;95.24
63903;BME280;50072;50.678;13.938;2023-04-09T06:17:00;100490.72;;;3.70;95.34
63903;BME280;50072;50.678;13.938;2023-04-09T06:19:27;100490.94;;;3.82;96.00
63903;BME280;50072;50.678;13.938;2023-04-09T06:21:53;100496.44;;;3.97;94.82
63903;BME280;50072;50.678;13.938;2023-04-09T06:24:19;100497.50;;;4.10;93.15
63903;BME280;50072;50.678;13.938;2023-04-09T06:26:46;100514.53;;;4.26;92.95
63903;BME280;50072;50.678;13.938;2023-04-09T06:29:12;100505.03;;;4.42;92.02
63903;BME280;50072;50.678;13.938;2023-04-09T06:31:37;100513.25;;;4.62;90.40
63903;BME280;50072;50.678;13.938;2023-04-09T06:34:04;100515.13;;;4.73;90.12
63903;BME280;50072;50.678;13.938;2023-04-09T06:36:32;100506.19;;;4.64;90.08
63903;BME280;50072;50.678;13.938;2023-04-09T06:38:59;100513.44;;;4.78;89.24
63903;BME280;50072;50.678;13.938;2023-04-09T06:41:25;100515.47;;;5.00;89.00
63903;BME280;50072;50.678;13.938;2023-04-09T06:43:54;100517.38;;;5.14;88.43
63903;BME280;50072;50.678;13.938;2023-04-09T06:46:21;100519.25;;;5.24;88.00
63903;BME280;50072;50.678;13.938;2023-04-09T06:48:48;100522.91;;;5.37;86.94
63903;BME280;50072;50.678;13.938;2023-04-09T06:51:13;100522.97;;;5.42;87.14
63903;BME280;50072;50.678;13.938;2023-04-09T06:53:41;100522.19;;;5.52;86.57
63903;BME280;50072;50.678;13.938;2023-04-09T06:56:08;100526.84;;;5.78;85.64
63903;BME280;50072;50.678;13.938;2023-04-09T06:58:34;100527.84;;;5.97;85.80
63903;BME280;50072;50.678;13.938;2023-04-09T07:01:00;100524.38;;;6.02;84.91
63903;BME280;50072;50.678;13.938;2023-04-09T07:03:26;100534.19;;;6.08;84.25
63903;BME280;50072;50.678;13.938;2023-04-09T07:05:53;100527.16;;;6.15;84.01
63903;BME280;50072;50.678;13.938;2023-04-09T07:08:19;100533.34;;;6.15;83.84
63903;BME280;50072;50.678;13.938;2023-04-09T07:10:47;100536.13;;;6.35;84.34
63903;BME280;50072;50.678;13.938;2023-04-09T07:13:13;100536.22;;;6.52;83.98
63903;BME280;50072;50.678;13.938;2023-04-09T07:15:39;100531.00;;;6.72;82.98
63903;BME280;50072;50.678;13.938;2023-04-09T07:18:07;100535.47;;;6.78;81.41
63903;BME280;50072;50.678;13.938;2023-04-09T07:20:33;100538.19;;;6.95;80.74
63903;BME280;50072;50.678;13.938;2023-04-09T07:23:00;100538.19;;;6.98;78.47
63903;BME280;50072;50.678;13.938;2023-04-09T07:25:25;100541.81;;;7.19;79.85
63903;BME280;50072;50.678;13.938;2023-04-09T07:27:52;100529.44;;;7.33;79.01
63903;BME280;50072;50.678;13.938;2023-04-09T07:30:17;100541.91;;;7.60;76.27
63903;BME280;50072;50.678;13.938;2023-04-09T07:32:43;100537.50;;;7.80;75.61
63903;BME280;50072;50.678;13.938;2023-04-09T07:35:09;100535.69;;;8.03;75.37
63903;BME280;50072;50.678;13.938;2023-04-09T07:37:36;100532.13;;;7.95;74.43
63903;BME280;50072;50.678;13.938;2023-04-09T07:40:03;100525.03;;;7.86;73.24
63903;BME280;50072;50.678;13.938;2023-04-09T07:42:29;100529.50;;;8.01;73.32
63903;BME280;50072;50.678;13.938;2023-04-09T07:44:56;100537.47;;;8.21;74.28
63903;BME280;50072;50.678;13.938;2023-04-09T07:47:23;100530.31;;;8.39;73.07
63903;BME280;50072;50.678;13.938;2023-04-09T07:49:49;100532.09;;;8.48;72.05
63903;BME280;50072;50.678;13.938;2023-04-09T07:52:16;100533.84;;;8.64;71.72
63903;BME280;50072;50.678;13.938;2023-04-09T07:54:42;100540.91;;;8.76;70.31
63903;BME280;50072;50.678;13.938;2023-04-09T07:57:08;100533.72;;;8.93;70.77
63903;BME280;50072;50.678;13.938;2023-04-09T07:59:34;100536.31;;;9.07;69.99
63903;BME280;50072;50.678;13.938;2023-04-09T08:02:03;100538.97;;;9.15;70.11
63903;BME280;50072;50.678;13.938;2023-04-09T08:04:30;100538.03;;;9.19;69.86
63903;BME280;50072;50.678;13.938;2023-04-09T08:06:56;100548.69;;;9.27;68.60
63903;BME280;50072;50.678;13.938;2023-04-09T08:09:22;100541.44;;;9.50;67.94
63903;BME280;50072;50.678;13.938;2023-04-09T08:11:49;100541.22;;;9.78;66.31
63903;BME280;50072;50.678;13.938;2023-04-09T08:14:17;100542.88;;;9.95;66.49
63903;BME280;50072;50.678;13.938;2023-04-09T08:16:45;100551.84;;;9.84;65.70
63903;BME280;50072;50.678;13.938;2023-04-09T08:19:12;100547.47;;;9.74;64.92
63903;BME280;50072;50.678;13.938;2023-04-09T08:21:40;100546.47;;;9.91;65.45
63903;BME280;50072;50.678;13.938;2023-04-09T08:24:11;100537.22;;;10.26;65.57
63903;BME280;50072;50.678;13.938;2023-04-09T08:26:41;100531.63;;;10.53;64.94
63903;BME280;50072;50.678;13.938;2023-04-09T08:29:07;100542.22;;;10.63;63.05
63903;BME280;50072;50.678;13.938;2023-04-09T08:31:34;100534.97;;;10.74;64.08
63903;BME280;50072;50.678;13.938;2023-04-09T08:34:12;100535.53;;;11.01;64.39
63903;BME280;50072;50.678;13.938;2023-04-09T08:36:44;100541.75;;;11.03;61.17
63903;BME280;50072;50.678;13.938;2023-04-09T08:39:10;100534.72;;;10.94;62.44
63903;BME280;50072;50.678;13.938;2023-04-09T08:41:44;100537.72;;;10.68;61.54
63903;BME280;50072;50.678;13.938;2023-04-09T08:44:16;100542.22;;;10.63;63.85
63903;BME280;50072;50.678;13.938;2023-04-09T08:46:44;100535.00;;;10.71;63.09
63903;BME280;50072;50.678;13.938;2023-04-09T08:49:10;100539.28;;;10.84;62.56
63903;BME280;50072;50.678;13.938;2023-04-09T08:51:35;100540.13;;;10.90;61.20
63903;BME280;50072;50.678;13.938;2023-04-09T08:54:01;100547.09;;;11.03;60.78
63903;BME280;50072;50.678;13.938;2023-04-09T08:56:28;100557.72;;;11.12;61.77
63903;BME280;50072;50.678;13.938;2023-04-09T08:58:54;100542.03;;;11.47;60.41
63903;BME280;50072;50.678;13.938;2023-04-09T09:01:28;100544.06;;;11.88;59.37
63903;BME280;50072;50.678;13.938;2023-04-09T09:03:58;100540.00;;;12.20;57.32
63903;BME280;50072;50.678;13.938;2023-04-09T09:06:25;100536.41;;;12.21;55.81
63903;BME280;50072;50.678;13.938;2023-04-09T09:11:29;100527.97;;;11.90;57.20
63903;BME280;50072;50.678;13.938;2023-04-09T09:14:06;100527.63;;;11.54;57.50
63903;BME280;50072;50.678;13.938;2023-04-09T09:16:33;100530.50;;;11.43;58.04
63903;BME280;50072;50.678;13.938;2023-04-09T09:19:02;100522.66;;;11.28;57.59
63903;BME280;50072;50.678;13.938;2023-04-09T09:21:29;100515.56;;;11.25;58.23
63903;BME280;50072;50.678;13.938;2023-04-09T09:23:55;100525.19;;;11.38;58.22
63903;BME280;50072;50.678;13.938;2023-04-09T09:26:24;100515.31;;;11.42;57.95
63903;BME280;50072;50.678;13.938;2023-04-09T09:28:51;100518.72;;;11.53;58.96
63903;BME280;50072;50.678;13.938;2023-04-09T09:31:18;100507.56;;;11.80;55.41
63903;BME280;50072;50.678;13.938;2023-04-09T09:33:44;100512.53;;;12.06;54.76
63903;BME280;50072;50.678;13.938;2023-04-09T09:36:13;100508.47;;;12.33;55.46
63903;BME280;50072;50.678;13.938;2023-04-09T09:38:55;100506.16;;;12.60;52.78
63903;BME280;50072;50.678;13.938;2023-04-09T09:41:23;100495.34;;;13.07;51.56
63903;BME280;50072;50.678;13.938;2023-04-09T09:43:53;100502.53;;;13.83;51.27
63903;BME280;50072;50.678;13.938;2023-04-09T09:46:20;100490.59;;;14.62;47.84
63903;BME280;50072;50.678;13.938;2023-04-09T09:48:46;100490.09;;;15.38;46.85
63903;BME280;50072;50.678;13.938;2023-04-09T09:51:14;100489.06;;;15.70;45.69
63903;BME280;50072;50.678;13.938;2023-04-09T09:53:46;100483.59;;;16.52;41.78
63903;BME280;50072;50.678;13.938;2023-04-09T09:56:20;100483.88;;;16.93;42.70
63903;BME280;50072;50.678;13.938;2023-04-09T09:59:06;100484.44;;;16.78;40.43
63903;BME280;50072;50.678;13.938;2023-04-09T10:01:33;100483.47;;;16.79;40.16
63903;BME280;50072;50.678;13.938;2023-04-09T10:04:04;100474.09;;;17.13;39.33
63903;BME280;50072;50.678;13.938;2023-04-09T10:06:32;100478.31;;;17.20;38.25
63903;BME280;50072;50.678;13.938;2023-04-09T10:09:12;100465.25;;;17.31;36.48
63903;BME280;50072;50.678;13.938;2023-04-09T10:11:39;100468.22;;;17.90;36.53
63903;BME280;50072;50.678;13.938;2023-04-09T10:14:10;100462.94;;;18.50;35.41
63903;BME280;50072;50.678;13.938;2023-04-09T10:16:46;100456.16;;;18.79;36.30
63903;BME280;50072;50.678;13.938;2023-04-09T10:19:14;100457.88;;;19.39;35.20
63903;BME280;50072;50.678;13.938;2023-04-09T10:22:00;100464.28;;;20.11;34.34
63903;BME280;50072;50.678;13.938;2023-04-09T10:24:36;100450.31;;;20.70;34.28
63903;BME280;50072;50.678;13.938;2023-04-09T10:27:15;100451.53;;;21.30;31.76
63903;BME280;50072;50.678;13.938;2023-04-09T10:29:44;100449.66;;;21.78;30.74
63903;BME280;50072;50.678;13.938;2023-04-09T10:32:19;100450.84;;;21.88;31.53
63903;BME280;50072;50.678;13.938;2023-04-09T10:34:57;100446.88;;;21.64;31.11
63903;BME280;50072;50.678;13.938;2023-04-09T10:37:25;100448.63;;;21.65;32.42
63903;BME280;50072;50.678;13.938;2023-04-09T10:39:55;100447.50;;;21.53;31.17
63903;BME280;50072;50.678;13.938;2023-04-09T10:42:34;100446.34;;;21.41;31.06
63903;BME280;50072;50.678;13.938;2023-04-09T10:45:14;100442.38;;;21.15;30.83
63903;BME280;50072;50.678;13.938;2023-04-09T10:47:42;100445.47;;;21.57;31.13
63903;BME280;50072;50.678;13.938;2023-04-09T10:50:18;100444.56;;;21.40;30.79
63903;BME280;50072;50.678;13.938;2023-04-09T10:52:45;100452.16;;;21.97;30.41
63903;BME280;50072;50.678;13.938;2023-04-09T10:55:40;100436.72;;;22.12;28.95
63903;BME280;50072;50.678;13.938;2023-04-09T10:58:10;100435.06;;;21.47;30.20
63903;BME280;50072;50.678;13.938;2023-04-09T11:00:39;100443.78;;;21.06;30.07
63903;BME280;50072;50.678;13.938;2023-04-09T11:03:21;100443.34;;;20.98;30.69
63903;BME280;50072;50.678;13.938;2023-04-09T11:06:09;100450.78;;;20.78;29.56
63903;BME280;50072;50.678;13.938;2023-04-09T11:08:37;100451.19;;;20.53;29.83
63903;BME280;50072;50.678;13.938;2023-04-09T11:11:03;100449.84;;;20.44;29.00
63903;BME280;50072;50.678;13.938;2023-04-09T11:13:31;100452.09;;;20.36;28.62
63903;BME280;50072;50.678;13.938;2023-04-09T11:15:58;100444.38;;;22.05;27.10
63903;BME280;50072;50.678;13.938;2023-04-09T11:18:27;100446.28;;;22.19;27.34
63903;BME280;50072;50.678;13.938;2023-04-09T11:20:56;100436.06;;;21.46;27.55
63903;BME280;50072;50.678;13.938;2023-04-09T11:23:23;100437.56;;;21.04;28.19
63903;BME280;50072;50.678;13.938;2023-04-09T11:25:51;100437.81;;;20.66;28.72
63903;BME280;50072;50.678;13.938;2023-04-09T11:28:18;100441.50;;;20.14;29.36
63903;BME280;50072;50.678;13.938;2023-04-09T11:30:44;100438.47;;;20.03;28.97
63903;BME280;50072;50.678;13.938;2023-04-09T11:33:12;100437.09;;;19.94;29.64
63903;BME280;50072;50.678;13.938;2023-04-09T11:35:38;100440.47;;;19.62;30.33
63903;BME280;50072;50.678;13.938;2023-04-09T11:38:08;100426.13;;;20.13;31.97
63903;BME280;50072;50.678;13.938;2023-04-09T11:40:40;100426.09;;;20.81;29.55
63903;BME280;50072;50.678;13.938;2023-04-09T11:43:13;100424.56;;;21.41;29.56
63903;BME280;50072;50.678;13.938;2023-04-09T11:45:40;100427.13;;;21.12;29.78
63903;BME280;50072;50.678;13.938;2023-04-09T11:48:07;100411.44;;;20.68;29.99
63903;BME280;50072;50.678;13.938;2023-04-09T11:50:33;100422.53;;;20.30;30.53
63903;BME280;50072;50.678;13.938;2023-04-09T11:52:59;100422.38;;;19.80;30.66
63903;BME280;50072;50.678;13.938;2023-04-09T11:55:27;100422.91;;;19.33;31.42
63903;BME280;50072;50.678;13.938;2023-04-09T11:57:59;100418.66;;;18.70;32.77
63903;BME280;50072;50.678;13.938;2023-04-09T12:00:26;100421.91;;;18.18;33.12
63903;BME280;50072;50.678;13.938;2023-04-09T12:03:03;100429.31;;;18.15;33.63
63903;BME280;50072;50.678;13.938;2023-04-09T12:05:32;100436.66;;;18.11;34.34
63903;BME280;50072;50.678;13.938;2023-04-09T12:08:01;100431.41;;;18.28;35.36
63903;BME280;50072;50.678;13.938;2023-04-09T12:10:32;100439.03;;;18.39;33.80
63903;BME280;50072;50.678;13.938;2023-04-09T12:13:05;100434.97;;;18.29;34.17
63903;BME280;50072;50.678;13.938;2023-04-09T12:15:35;100440.25;;;18.53;34.12
63903;BME280;50072;50.678;13.938;2023-04-09T12:18:02;100449.56;;;19.06;33.66
63903;BME280;50072;50.678;13.938;2023-04-09T12:20:42;100455.25;;;19.74;33.13
63903;BME280;50072;50.678;13.938;2023-04-09T12:23:10;100452.91;;;19.86;32.23
63903;BME280;50072;50.678;13.938;2023-04-09T12:25:37;100452.75;;;20.24;31.67
63903;BME280;50072;50.678;13.938;2023-04-09T12:28:05;100452.75;;;20.41;31.15
63903;BME280;50072;50.678;13.938;2023-04-09T12:30:32;100446.34;;;21.57;29.31
63903;BME280;50072;50.678;13.938;2023-04-09T12:33:00;100449.13;;;20.41;29.80
63903;BME280;50072;50.678;13.938;2023-04-09T12:35:27;100456.75;;;19.81;31.14
63903;BME280;50072;50.678;13.938;2023-04-09T12:37:54;100458.09;;;20.94;29.89
63903;BME280;50072;50.678;13.938;2023-04-09T12:40:20;100458.63;;;22.99;27.17
63903;BME280;50072;50.678;13.938;2023-04-09T12:42:47;100448.22;;;25.67;24.20
63903;BME280;50072;50.678;13.938;2023-04-09T12:45:15;100451.38;;;28.14;21.48
63903;BME280;50072;50.678;13.938;2023-04-09T12:47:41;100433.25;;;29.56;19.54
63903;BME280;50072;50.678;13.938;2023-04-09T12:50:08;100440.06;;;31.80;17.37
63903;BME280;50072;50.678;13.938;2023-04-09T12:52:35;100436.66;;;33.36;17.66
63903;BME280;50072;50.678;13.938;2023-04-09T12:55:04;100433.34;;;34.08;15.90
63903;BME280;50072;50.678;13.938;2023-04-09T12:57:31;100426.84;;;31.74;17.52
63903;BME280;50072;50.678;13.938;2023-04-09T12:59:56;100436.09;;;32.90;16.18
63903;BME280;50072;50.678;13.938;2023-04-09T13:02:24;100430.91;;;33.97;15.25
63903;BME280;50072;50.678;13.938;2023-04-09T13:04:51;100426.91;;;32.63;16.51
63903;BME280;50072;50.678;13.938;2023-04-09T13:07:18;100416.75;;;31.55;17.42
63903;BME280;50072;50.678;13.938;2023-04-09T13:09:44;100417.56;;;30.35;18.64